Irtyshsk, Kazakhstan
Current Conditions -  °F | °C
As of 12:30 PM on Friday 19 Dec 2014 (Local Time) from UASP Reporting Station
Clear Clear  
Wind Chill: -12°   Ceiling: Unl
Heat Index: -2°   Visibility: 6mi
Dew Point: -8°   Wind: 4mph
Humidity: 78%   Direction: 140°SE
Pressure: 30.56"   Gusts: NA
Location:  53.33°N, 75.46°E
Report Text: UASP 190630Z 14002MPS CAVOK M19/M22 Q1035 R21/410160 NOSIG RMKQFE765/1020
Loading
Personal Weather Stations






























Interactive Weather Map New forecast layout! Learn more

10-Day Weather Forecast

Advertisements
Track Severe Weather on mobile